createdAt,value
2022-08-01T00:04:34.122Z,18.21
2022-08-01T00:09:35.871Z,18.21
2022-08-01T00:14:37.765Z,18.23
2022-08-01T00:19:39.402Z,18.20
2022-08-01T00:24:41.036Z,18.17
2022-08-01T00:30:11.966Z,18.15
2022-08-01T00:35:04.672Z,18.14
2022-08-01T00:40:08.816Z,18.15
2022-08-01T00:45:12.574Z,18.15
2022-08-01T00:50:14.497Z,18.12
2022-08-01T00:55:18.951Z,18.10
2022-08-01T01:00:27.159Z,18.07
2022-08-01T01:05:33.541Z,18.12
2022-08-01T01:10:57.385Z,18.11
2022-08-01T01:16:02.610Z,18.11
2022-08-01T01:21:09.962Z,18.11
2022-08-01T01:26:26.475Z,18.07
2022-08-01T01:31:30.255Z,18.04
2022-08-01T01:36:33.552Z,18.00
2022-08-01T01:41:39.392Z,18.05
2022-08-01T01:46:43.106Z,18.03
2022-08-01T01:51:57.461Z,18.00
2022-08-01T01:57:07.983Z,18.00
2022-08-01T02:02:11.515Z,17.96
2022-08-01T02:07:20.575Z,17.98
2022-08-01T02:12:25.444Z,18.01
2022-08-01T02:17:28.704Z,17.98
2022-08-01T02:22:38.555Z,18.02
2022-08-01T02:27:49.746Z,17.98
2022-08-01T02:32:59.196Z,18.00
2022-08-01T02:38:04.817Z,17.97
2022-08-01T02:43:09.202Z,17.95
2022-08-01T02:48:14.354Z,17.96
2022-08-01T02:53:19.498Z,17.99
2022-08-01T02:58:29.278Z,17.96
2022-08-01T03:03:32.139Z,17.94
2022-08-01T03:08:35.705Z,17.92
2022-08-01T03:13:38.563Z,17.96
2022-08-01T03:18:42.672Z,17.94
2022-08-01T03:23:46.780Z,17.83
2022-08-01T03:28:49.942Z,17.91
2022-08-01T03:33:51.499Z,17.94
2022-08-01T03:38:56.007Z,17.94
2022-08-01T03:44:06.383Z,17.95
2022-08-01T03:49:15.193Z,17.89
2022-08-01T03:54:24.520Z,17.88
2022-08-01T03:59:26.288Z,17.92
2022-08-01T04:04:29.656Z,17.90
2022-08-01T04:09:32.695Z,17.94
2022-08-01T04:14:34.277Z,17.91
2022-08-01T04:19:35.835Z,17.93
2022-08-01T04:24:37.901Z,17.91
2022-08-01T04:29:40.471Z,17.88
2022-08-01T04:34:48.673Z,17.87
2022-08-01T04:39:53.839Z,17.86
2022-08-01T04:44:55.492Z,17.77
2022-08-01T04:49:57.740Z,17.74
2022-08-01T04:54:59.432Z,17.78
2022-08-01T05:00:02.052Z,17.86
2022-08-01T05:05:04.052Z,17.88
2022-08-01T05:10:06.756Z,17.90
2022-08-01T05:15:14.799Z,17.94
2022-08-01T05:20:22.964Z,17.87
2022-08-01T05:25:56.952Z,17.91
2022-08-01T05:30:46.573Z,17.89
2022-08-01T05:35:49.366Z,17.85
2022-08-01T05:40:53.523Z,17.88
2022-08-01T05:45:55.123Z,17.92
2022-08-01T05:50:58.816Z,17.71
2022-08-01T05:56:02.899Z,17.62
2022-08-01T06:01:04.934Z,17.79
2022-08-01T06:06:06.859Z,17.68
2022-08-01T06:11:09.966Z,17.80
2022-08-01T06:16:18.093Z,17.83
2022-08-01T06:21:22.108Z,17.94
2022-08-01T06:26:26.314Z,17.87
2022-08-01T06:31:33.372Z,18.09
2022-08-01T06:36:36.293Z,18.05
2022-08-01T06:41:42.624Z,17.95
2022-08-01T06:46:45.129Z,17.79
2022-08-01T06:51:47.960Z,17.73
2022-08-01T06:56:50.263Z,17.73
2022-08-01T07:01:52.255Z,17.75
2022-08-01T07:06:54.132Z,17.97
2022-08-01T07:11:58.452Z,18.08
2022-08-01T07:17:00.634Z,17.96
2022-08-01T07:22:04.084Z,18.24
2022-08-01T07:27:23.215Z,18.26
2022-08-01T07:32:26.225Z,18.29
2022-08-01T07:37:48.712Z,18.30
2022-08-01T07:42:49.814Z,18.48
2022-08-01T07:47:51.482Z,18.64
2022-08-01T07:52:53.197Z,18.69
2022-08-01T07:57:54.884Z,18.57
2022-08-01T08:02:59.789Z,18.75
2022-08-01T08:08:02.597Z,18.82
2022-08-01T08:13:04.426Z,18.78
2022-08-01T08:18:07.443Z,18.89
2022-08-01T08:23:42.480Z,18.96
2022-08-01T08:28:51.032Z,18.91
2022-08-01T08:33:53.280Z,19.08
2022-08-01T08:38:56.038Z,19.12
2022-08-01T08:44:00.073Z,19.18
2022-08-01T08:49:04.489Z,19.33
2022-08-01T08:54:08.821Z,19.51
2022-08-01T08:59:14.405Z,19.58
2022-08-01T09:04:16.120Z,19.54
2022-08-01T09:09:18.211Z,19.44
2022-08-01T09:14:31.132Z,19.52
2022-08-01T09:19:39.544Z,19.63
2022-08-01T09:24:43.431Z,19.79
2022-08-01T09:29:45.872Z,19.62
2022-08-01T09:34:51.707Z,19.57
2022-08-01T09:39:58.516Z,19.45
2022-08-01T09:45:02.217Z,19.71
2022-08-01T09:50:08.719Z,19.89
2022-08-01T09:55:13.392Z,19.92
2022-08-01T10:00:43.900Z,19.96
2022-08-01T10:05:44.150Z,20.02
2022-08-01T10:11:12.396Z,19.97
2022-08-01T10:16:15.775Z,20.12
2022-08-01T10:21:57.229Z,20.28
2022-08-01T10:26:45.009Z,20.27
2022-08-01T10:31:50.568Z,20.26
2022-08-01T10:36:53.654Z,20.19
2022-08-01T10:41:56.582Z,20.40
2022-08-01T10:47:10.093Z,20.28
2022-08-01T10:52:17.086Z,20.44
2022-08-01T10:57:23.176Z,20.28
2022-08-01T11:02:32.584Z,20.41
2022-08-01T11:07:46.956Z,20.23
2022-08-01T11:12:52.504Z,20.51
2022-08-01T11:17:55.457Z,20.35
2022-08-01T11:23:06.026Z,20.52
2022-08-01T11:28:15.363Z,20.73
2022-08-01T11:33:20.524Z,20.75
2022-08-01T11:38:31.175Z,20.99
2022-08-01T11:43:33.369Z,20.93
2022-08-01T11:48:35.061Z,21.13
2022-08-01T11:53:47.457Z,21.27
2022-08-01T11:58:51.171Z,21.29
2022-08-01T12:03:57.157Z,21.50
2022-08-01T12:09:16.629Z,21.43
2022-08-01T12:14:22.522Z,21.50
2022-08-01T12:19:25.782Z,21.42
2022-08-01T12:24:27.411Z,21.59
2022-08-01T12:29:44.684Z,21.67
2022-08-01T12:34:46.407Z,21.32
2022-08-01T12:39:48.199Z,21.45
2022-08-01T12:44:52.720Z,21.83
2022-08-01T12:49:54.433Z,22.03
2022-08-01T12:55:14.175Z,22.01
2022-08-01T13:00:23.644Z,21.95
2022-08-01T13:05:26.532Z,21.77
2022-08-01T13:10:30.432Z,21.91
2022-08-01T13:15:35.542Z,22.05
2022-08-01T13:20:37.870Z,22.30
2022-08-01T13:25:56.475Z,22.40
2022-08-01T13:31:04.395Z,22.43
2022-08-01T13:36:06.245Z,22.32
2022-08-01T13:41:08.492Z,22.24
2022-08-01T13:46:10.165Z,22.26
2022-08-01T13:51:21.950Z,22.41
2022-08-01T13:56:32.238Z,22.72
2022-08-01T14:01:34.765Z,22.86
2022-08-01T14:06:36.693Z,23.21
2022-08-01T14:11:39.507Z,23.48
2022-08-01T14:16:47.513Z,23.66
2022-08-01T14:21:49.133Z,23.24
2022-08-01T14:26:50.950Z,23.10
2022-08-01T14:31:52.576Z,23.34
2022-08-01T14:36:55.425Z,23.34
2022-08-01T14:41:59.238Z,23.43
2022-08-01T14:47:01.060Z,23.34
2022-08-01T14:52:03.620Z,23.55
2022-08-01T14:57:31.509Z,23.56
2022-08-01T15:03:11.258Z,23.61
2022-08-01T15:08:12.970Z,23.72
2022-08-01T15:13:14.635Z,23.85
2022-08-01T15:18:17.094Z,23.78
2022-08-01T15:23:18.690Z,23.82
2022-08-01T15:28:20.967Z,23.78
2022-08-01T15:33:22.841Z,23.79
2022-08-01T15:38:24.450Z,23.78
2022-08-01T15:43:26.192Z,23.89
2022-08-01T15:48:29.712Z,24.01
2022-08-01T15:53:31.516Z,23.84
2022-08-01T15:58:33.891Z,23.90
2022-08-01T16:03:35.502Z,23.91
2022-08-01T16:08:37.206Z,23.92
2022-08-01T16:13:38.956Z,23.83
2022-08-01T16:18:40.532Z,23.90
2022-08-01T16:23:43.927Z,24.12
2022-08-01T16:28:48.266Z,23.88
2022-08-01T16:33:54.431Z,23.84
2022-08-01T16:38:57.816Z,23.85
2022-08-01T16:43:59.553Z,23.65
2022-08-01T16:49:01.417Z,23.70
2022-08-01T16:54:25.291Z,23.60
2022-08-01T16:59:28.398Z,23.63
2022-08-01T17:04:30.687Z,23.52
2022-08-01T17:09:36.641Z,23.39
2022-08-01T17:14:41.694Z,23.42
2022-08-01T17:19:45.237Z,23.44
2022-08-01T17:24:47.290Z,23.42
2022-08-01T17:29:49.000Z,23.32
2022-08-01T17:34:51.986Z,23.33
2022-08-01T17:39:53.774Z,23.34
2022-08-01T17:44:57.075Z,23.17
2022-08-01T17:50:02.593Z,23.18
2022-08-01T17:55:05.324Z,23.18
2022-08-01T18:00:29.128Z,22.98
2022-08-01T18:05:37.258Z,22.87
2022-08-01T18:10:43.511Z,22.84
2022-08-01T18:15:48.671Z,22.72
2022-08-01T18:20:52.340Z,22.62
2022-08-01T18:25:54.269Z,22.43
2022-08-01T18:30:56.769Z,22.26
2022-08-01T18:36:01.925Z,22.06
2022-08-01T18:41:05.832Z,21.92
2022-08-01T18:46:07.524Z,21.77
2022-08-01T18:51:11.517Z,21.70
2022-08-01T18:56:13.524Z,21.45
2022-08-01T19:01:15.225Z,21.36
2022-08-01T19:06:16.961Z,21.18
2022-08-01T19:11:18.609Z,21.21
2022-08-01T19:16:20.355Z,21.12
2022-08-01T19:21:22.395Z,21.02
2022-08-01T19:26:27.134Z,20.95
2022-08-01T19:31:29.559Z,20.88
2022-08-01T19:36:57.293Z,20.72
2022-08-01T19:41:59.739Z,20.61
2022-08-01T19:47:02.000Z,20.63
2022-08-01T19:52:04.516Z,20.56
2022-08-01T19:57:45.202Z,20.41
2022-08-01T20:02:48.189Z,20.23
2022-08-01T20:07:51.019Z,20.11
2022-08-01T20:12:53.873Z,20.05
2022-08-01T20:17:58.186Z,20.07
2022-08-01T20:23:10.559Z,20.08
2022-08-01T20:28:27.785Z,19.92
2022-08-01T20:33:30.965Z,19.81
2022-08-01T20:38:34.935Z,19.72
2022-08-01T20:43:39.774Z,19.60
2022-08-01T20:48:43.375Z,19.59
2022-08-01T20:53:49.144Z,19.46
2022-08-01T20:59:54.481Z,19.45
2022-08-01T21:05:00.825Z,19.37
2022-08-01T21:10:09.801Z,19.32
2022-08-01T21:15:31.907Z,19.27
2022-08-01T21:20:39.077Z,19.24
2022-08-01T21:25:42.069Z,19.04
2022-08-01T21:30:55.507Z,18.98
2022-08-01T21:36:05.831Z,19.05
2022-08-01T21:41:08.782Z,18.93
2022-08-01T21:46:11.796Z,18.95
2022-08-01T21:51:37.311Z,18.84
2022-08-01T21:56:57.286Z,18.68
2022-08-01T22:02:07.503Z,18.73
2022-08-01T22:07:14.909Z,18.62
2022-08-01T22:12:18.741Z,18.57
2022-08-01T22:17:22.766Z,18.48
2022-08-01T22:22:45.094Z,18.39
2022-08-01T22:28:03.221Z,18.32
2022-08-01T22:33:15.554Z,18.28
2022-08-01T22:38:19.344Z,18.31
2022-08-01T22:43:39.356Z,18.14
2022-08-01T22:49:01.930Z,18.17
2022-08-01T22:54:12.853Z,18.15
2022-08-01T22:59:20.852Z,18.08
2022-08-01T23:04:33.484Z,18.01
2022-08-01T23:09:39.302Z,17.99
2022-08-01T23:14:58.807Z,18.00
2022-08-01T23:20:02.392Z,17.89
2022-08-01T23:25:08.900Z,17.82
2022-08-01T23:30:11.649Z,17.81
2022-08-01T23:35:13.298Z,17.77
2022-08-01T23:40:15.058Z,17.72
2022-08-01T23:45:16.700Z,17.71
2022-08-01T23:50:22.145Z,17.83
2022-08-01T23:55:36.825Z,17.78
